Time;durP1;ratioP1;P1;durP2;ratioP2;P2;SDS_P1;SDS_P2;PMS_P1;PMS_P2;Temp;Humidity;BMP_temperature;BMP_pressure;BME280_temperature;BME280_humidity;BME280_pressure;Samples;Min_cycle;Max_cycle;Signal;HPM_P1;HPM_P2
2022/10/03 00:01:18;;;;;;;1.70;1.20;;;;;;;10.56;80.81;95305.09;1723523;83;21050;-72
2022/10/03 00:04:15;;;;;;;1.22;0.90;;;;;;;10.67;80.44;95299.55;1724397;83;21003;-72
2022/10/03 00:06:56;;;;;;;1.40;0.90;;;;;;;10.74;80.46;95300.69;1724139;83;21010;-72
2022/10/03 00:09:51;;;;;;;2.15;1.12;;;;;;;10.78;80.19;95290.91;1685179;83;21062;-72
2022/10/03 00:12:41;;;;;;;4.00;0.90;;;;;;;10.82;80.68;95289.48;1723380;83;21503;-72
2022/10/03 00:15:20;;;;;;;3.00;0.90;;;;;;;10.81;80.53;95283.80;1716464;83;21641;-72
2022/10/03 00:18:04;;;;;;;1.70;1.07;;;;;;;10.79;81.03;95275.05;1724271;83;21031;-71
2022/10/03 00:20:52;;;;;;;1.25;0.93;;;;;;;10.83;80.77;95285.06;1724206;83;21023;-72
2022/10/03 00:23:41;;;;;;;1.47;0.80;;;;;;;10.88;81.00;95274.41;1722517;83;20995;-72
2022/10/03 00:26:26;;;;;;;1.55;0.80;;;;;;;10.95;81.07;95270.70;1687250;83;21062;-72
2022/10/03 00:29:11;;;;;;;2.37;0.90;;;;;;;10.96;81.33;95269.36;1706416;83;21038;-72
2022/10/03 00:32:13;;;;;;;1.40;0.78;;;;;;;11.04;81.75;95266.06;1724449;82;21481;-72
2022/10/03 00:35:23;;;;;;;1.45;0.70;;;;;;;11.08;81.91;95264.20;1724164;83;21567;-72
2022/10/03 00:38:08;;;;;;;2.27;0.60;;;;;;;10.98;81.48;95260.06;1723725;83;21054;-71
2022/10/03 00:41:24;;;;;;;1.85;0.70;;;;;;;10.86;82.64;95260.37;1723945;83;21039;-71
2022/10/03 00:44:36;;;;;;;3.52;0.60;;;;;;;10.83;82.53;95262.63;1724160;83;21003;-71
2022/10/03 00:47:34;;;;;;;1.00;0.47;;;;;;;10.82;82.91;95263.55;1724273;83;21063;-71
2022/10/03 00:50:12;;;;;;;6.47;0.50;;;;;;;10.84;82.75;95256.47;1723859;83;21015;-71
2022/10/03 00:53:13;;;;;;;1.50;0.45;;;;;;;10.93;82.73;95252.72;1723941;83;21071;-71
2022/10/03 00:55:54;;;;;;;1.17;0.50;;;;;;;11.00;82.55;95247.70;1723776;83;21011;-71
2022/10/03 00:58:38;;;;;;;1.22;0.55;;;;;;;10.96;82.19;95243.39;1724289;82;21116;-71
2022/10/03 01:01:34;;;;;;;3.85;0.50;;;;;;;10.96;82.64;95237.69;1724370;83;21536;-71
2022/10/03 01:04:39;;;;;;;4.28;0.40;;;;;;;10.92;83.09;95237.80;1724295;83;21002;-72
2022/10/03 01:07:20;;;;;;;2.25;0.40;;;;;;;10.90;83.87;95236.97;1724007;83;21038;-71
2022/10/03 01:10:31;;;;;;;3.60;0.50;;;;;;;10.94;83.58;95235.99;1724143;83;21047;-71
2022/10/03 01:13:32;;;;;;;3.37;0.72;;;;;;;11.02;83.77;95231.38;1724649;83;21485;-72
2022/10/03 01:16:42;;;;;;;1.60;0.60;;;;;;;11.00;83.44;95219.52;1706445;83;21027;-72
2022/10/03 01:19:29;;;;;;;0.90;0.50;;;;;;;11.03;83.49;95229.13;1737627;82;21452;-72
2022/10/03 01:22:18;;;;;;;0.70;0.60;;;;;;;11.07;83.54;95218.05;1706421;84;21074;-70
2022/10/03 01:25:01;;;;;;;0.40;0.40;;;;;;;11.10;83.34;95212.69;1706685;84;20999;-71
2022/10/03 01:31:01;;;;;;;0.80;0.60;;;;;;;10.97;82.74;95206.87;1706639;84;21130;-71
2022/10/03 01:33:45;;;;;;;1.52;0.53;;;;;;;10.89;82.83;95203.57;1737609;83;21089;-71
2022/10/03 01:36:26;;;;;;;1.62;0.60;;;;;;;10.80;83.21;95202.88;1706883;84;21103;-71
2022/10/03 01:39:07;;;;;;;0.50;0.50;;;;;;;10.78;82.85;95208.64;1706906;84;21035;-71
2022/10/03 01:41:51;;;;;;;0.50;0.50;;;;;;;10.71;82.81;95204.45;1717967;83;21026;-71
2022/10/03 01:44:41;;;;;;;1.32;0.62;;;;;;;10.65;84.06;95194.49;1706689;84;21576;-71
2022/10/03 01:47:22;;;;;;;0.55;0.55;;;;;;;10.60;83.56;95208.66;1737428;83;21014;-72
2022/10/03 01:49:57;;;;;;;2.47;0.72;;;;;;;10.55;84.43;95210.54;1706547;84;21480;-72
2022/10/03 01:52:35;;;;;;;3.72;0.80;;;;;;;10.55;84.09;95207.91;1706744;84;21015;-71
2022/10/03 01:55:22;;;;;;;2.25;0.80;;;;;;;10.58;83.86;95206.53;1737641;83;21030;-71
2022/10/03 01:58:25;;;;;;;1.15;0.60;;;;;;;10.66;84.08;95205.45;1706620;84;21042;-72
2022/10/03 02:01:20;;;;;;;1.30;0.57;;;;;;;10.71;84.13;95196.54;1706753;83;20976;-71
2022/10/03 02:04:00;;;;;;;1.35;0.60;;;;;;;10.75;83.94;95201.27;1737619;83;21504;-71
2022/10/03 02:06:53;;;;;;;0.72;0.70;;;;;;;10.69;83.84;95213.31;1706886;83;21047;-71
2022/10/03 02:09:49;;;;;;;1.10;0.60;;;;;;;10.73;83.89;95202.61;1706750;83;21043;-71
2022/10/03 02:12:41;;;;;;;1.92;0.47;;;;;;;10.77;83.94;95202.97;1737770;83;21003;-71
2022/10/03 02:15:16;;;;;;;0.70;0.62;;;;;;;10.82;83.96;95192.30;1696923;83;20996;-71
2022/10/03 02:18:03;;;;;;;0.37;0.37;;;;;;;10.80;83.78;95183.09;1716407;83;21136;-72
2022/10/03 02:20:42;;;;;;;2.35;0.60;;;;;;;10.79;83.64;95191.92;1716135;84;21055;-71
2022/10/03 02:23:35;;;;;;;0.95;0.60;;;;;;;10.76;83.85;95195.08;1716408;84;21022;-72
2022/10/03 02:26:45;;;;;;;0.47;0.47;;;;;;;10.74;83.75;95196.91;1716499;84;21505;-72
2022/10/03 02:29:52;;;;;;;0.62;0.40;;;;;;;10.72;83.76;95200.89;1652771;86;21000;-71
2022/10/03 02:32:55;;;;;;;1.62;0.53;;;;;;;10.72;83.56;95203.53;1651431;87;21035;-71
2022/10/03 02:36:05;;;;;;;1.47;0.50;;;;;;;10.72;83.68;95203.53;1716065;84;21035;-71
2022/10/03 02:38:50;;;;;;;1.92;0.60;;;;;;;10.74;83.75;95200.41;1716482;83;20979;-71
2022/10/03 02:41:51;;;;;;;2.70;0.50;;;;;;;10.70;84.03;95197.42;1675962;84;21478;-71
2022/10/03 02:44:56;;;;;;;1.92;0.30;;;;;;;10.75;84.03;95202.59;1716347;83;21055;-71
2022/10/03 02:47:43;;;;;;;0.85;0.40;;;;;;;10.79;83.86;95199.84;1716329;83;21075;-71
2022/10/03 02:50:44;;;;;;;0.57;0.40;;;;;;;10.79;84.12;95205.12;1716514;83;21023;-72
2022/10/03 02:53:38;;;;;;;1.10;0.60;;;;;;;10.81;83.94;95205.95;1685455;84;21016;-71
2022/10/03 02:56:28;;;;;;;0.90;0.30;;;;;;;10.86;84.19;95206.27;1684464;84;21046;-71
2022/10/03 02:59:13;;;;;;;0.20;0.20;;;;;;;10.89;83.70;95201.80;1714952;84;21466;-72
2022/10/03 03:02:35;;;;;;;1.32;0.30;;;;;;;10.87;83.47;95206.23;1716400;83;21019;-72
2022/10/03 03:05:47;;;;;;;1.30;0.50;;;;;;;10.83;83.65;95208.10;1716218;83;21478;-71
2022/10/03 03:08:32;;;;;;;0.57;0.50;;;;;;;10.81;83.88;95205.95;1684346;84;21015;-71
2022/10/03 03:11:25;;;;;;;2.05;0.80;;;;;;;10.78;83.66;95206.46;1716256;83;21529;-72
2022/10/03 03:14:25;;;;;;;0.98;0.85;;;;;;;10.68;83.97;95201.00;1717386;83;21619;-71
2022/10/03 03:17:22;;;;;;;0.80;0.80;;;;;;;10.71;84.07;95215.44;1682693;83;21142;-71
2022/10/03 03:20:09;;;;;;;2.00;1.10;;;;;;;10.72;84.02;95211.45;1724443;83;21006;-71
2022/10/03 03:22:58;;;;;;;1.02;0.93;;;;;;;10.76;84.44;95204.31;1724219;83;21034;-72
2022/10/03 03:26:14;;;;;;;1.90;0.95;;;;;;;10.73;83.85;95212.31;1724256;83;21499;-72
2022/10/03 03:29:05;;;;;;;2.67;1.00;;;;;;;10.70;84.12;95207.98;1661615;86;21031;-71
2022/10/03 03:31:49;;;;;;;1.42;0.90;;;;;;;10.73;84.36;95213.63;1722298;83;21006;-71
2022/10/03 03:34:36;;;;;;;4.33;1.40;;;;;;;10.73;84.27;95214.49;1724284;83;21035;-72
2022/10/03 03:37:11;;;;;;;2.27;1.82;;;;;;;10.70;84.52;95205.34;1723984;83;21019;-72
2022/10/03 03:39:44;;;;;;;3.87;2.10;;;;;;;10.66;84.41;95208.98;1724284;83;21036;-72
2022/10/03 03:42:26;;;;;;;4.55;1.90;;;;;;;10.64;84.88;95205.51;1723584;83;21011;-71
2022/10/03 03:45:22;;;;;;;3.08;2.42;;;;;;;10.61;84.58;95210.41;1724378;83;21355;-72
2022/10/03 03:48:27;;;;;;;4.35;1.87;;;;;;;10.58;85.21;95206.53;1724226;83;21066;-71
2022/10/03 03:51:11;;;;;;;1.52;1.42;;;;;;;10.62;85.27;95209.95;1724051;82;21067;-71
2022/10/03 03:53:53;;;;;;;2.67;1.75;;;;;;;10.68;85.47;95208.92;1723881;83;21532;-72
2022/10/03 03:57:00;;;;;;;1.42;1.32;;;;;;;10.73;85.43;95208.35;1723463;83;21105;-72
2022/10/03 04:00:04;;;;;;;1.20;1.00;;;;;;;10.80;85.25;95207.30;1698499;83;21051;-71
2022/10/03 04:03:27;;;;;;;1.20;1.10;;;;;;;10.80;85.38;95219.17;1724276;83;21011;-72
2022/10/03 04:06:34;;;;;;;1.75;1.07;;;;;;;10.80;84.93;95223.13;1724071;83;21019;-71
2022/10/03 04:09:40;;;;;;;2.33;1.70;;;;;;;10.78;85.20;95227.58;1662019;86;21521;-72
2022/10/03 04:12:49;;;;;;;2.60;2.12;;;;;;;10.81;85.08;95219.60;1724212;83;20975;-71
2022/10/03 04:15:44;;;;;;;2.75;2.47;;;;;;;10.85;85.14;95216.42;1722779;83;21078;-71
2022/10/03 04:18:58;;;;;;;3.67;2.60;;;;;;;10.87;85.16;95220.75;1724210;82;21083;-71
2022/10/03 04:21:36;;;;;;;8.18;7.40;;;;;;;10.87;85.12;95231.31;1712368;83;21060;-71
2022/10/03 04:24:43;;;;;;;3.90;2.67;;;;;;;10.78;85.69;95247.37;1722225;83;21453;-71
2022/10/03 04:27:41;;;;;;;2.90;2.70;;;;;;;10.73;84.83;95253.21;1723868;82;21635;-71
2022/10/03 04:30:18;;;;;;;4.53;2.08;;;;;;;10.72;85.44;95255.45;1705617;83;21163;-72
2022/10/03 04:32:56;;;;;;;2.77;1.65;;;;;;;10.70;85.04;95256.80;1708755;83;21070;-71
2022/10/03 04:35:39;;;;;;;2.02;1.80;;;;;;;10.71;84.75;95258.97;1724096;83;21054;-71
2022/10/03 04:38:27;;;;;;;2.45;1.75;;;;;;;10.73;85.06;95264.62;1717587;83;21039;-71
2022/10/03 04:41:41;;;;;;;3.05;2.75;;;;;;;10.75;84.76;95264.14;1723948;83;21031;-71
2022/10/03 04:44:46;;;;;;;1.90;1.35;;;;;;;10.74;84.24;95261.56;1724783;83;21055;-72
2022/10/03 04:47:33;;;;;;;20.02;18.12;;;;;;;10.65;83.53;95265.27;1724086;83;21015;-72
2022/10/03 04:50:27;;;;;;;3.70;3.27;;;;;;;10.55;83.20;95263.77;1724195;83;21070;-72
2022/10/03 04:53:14;;;;;;;6.85;6.25;;;;;;;10.42;83.00;95262.33;1724367;83;21541;-71
2022/10/03 04:56:15;;;;;;;3.98;3.27;;;;;;;10.39;83.85;95275.99;1695858;83;21540;-70
2022/10/03 04:58:55;;;;;;;4.87;4.45;;;;;;;10.42;84.03;95280.78;1723923;83;21003;-70
2022/10/03 05:01:45;;;;;;;7.00;3.98;;;;;;;10.34;83.79;95290.20;1691747;83;21054;-68
2022/10/03 05:04:29;;;;;;;19.80;16.65;;;;;;;10.32;83.91;95303.86;1723580;83;21043;-67
2022/10/03 05:07:40;;;;;;;27.98;23.98;;;;;;;10.27;83.89;95307.02;1723685;83;21556;-68
2022/10/03 05:10:34;;;;;;;6.35;5.35;;;;;;;10.23;83.64;95308.87;1723180;83;21039;-69
2022/10/03 05:13:10;;;;;;;3.83;3.52;;;;;;;10.17;83.47;95312.94;1723632;83;21010;-71
2022/10/03 05:16:03;;;;;;;4.00;3.58;;;;;;;10.19;83.39;95319.05;1702170;83;21043;-72
2022/10/03 05:18:57;;;;;;;4.55;1.62;;;;;;;10.19;82.84;95316.41;1715509;84;21075;-68
2022/10/03 05:21:41;;;;;;;3.50;2.72;;;;;;;10.10;83.22;95328.00;1715045;84;21592;-68
2022/10/03 05:24:12;;;;;;;;;;;;;;;10.11;82.96;95334.17;1718161;84;21074;-67
2022/10/03 05:27:10;;;;;;;1.65;1.20;;;;;;;10.12;83.04;95335.44;1715765;83;20164;-68
2022/10/03 05:30:03;;;;;;;2.00;1.70;;;;;;;10.12;82.52;95337.21;1716225;84;21027;-67
2022/10/03 05:32:50;;;;;;;1.52;1.20;;;;;;;10.11;82.46;95340.30;1715859;84;21118;-67
2022/10/03 05:35:46;;;;;;;3.47;1.60;;;;;;;10.11;82.52;95339.44;1716297;84;21077;-65
2022/10/03 05:38:31;;;;;;;2.35;1.65;;;;;;;10.18;82.49;95349.83;1716364;84;21043;-67
2022/10/03 05:41:06;;;;;;;2.77;1.60;;;;;;;10.24;81.91;95351.91;1715474;83;21011;-71
2022/10/03 05:43:57;;;;;;;3.80;1.90;;;;;;;10.19;81.68;95351.55;1714145;84;21055;-68
2022/10/03 05:46:37;;;;;;;3.60;3.30;;;;;;;10.21;82.11;95360.76;1715448;84;21110;-69
2022/10/03 05:50:02;;;;;;;2.90;1.60;;;;;;;10.26;82.21;95355.39;1715404;84;21082;-68
2022/10/03 05:52:54;;;;;;;3.77;1.87;;;;;;;10.26;81.47;95354.08;1715562;84;21043;-71
2022/10/03 05:55:38;;;;;;;3.70;2.75;;;;;;;10.27;81.33;95357.98;1715801;83;21575;-65
2022/10/03 05:58:33;;;;;;;4.72;3.60;;;;;;;10.33;82.18;95361.86;1716181;83;21556;-75
2022/10/03 06:01:31;;;;;;;2.92;2.62;;;;;;;10.42;81.91;95352.86;1716417;83;21071;-77
2022/10/03 06:04:39;;;;;;;3.10;2.05;;;;;;;10.42;80.55;95356.81;1708961;84;21019;-79
2022/10/03 06:07:57;;;;;;;2.65;1.22;;;;;;;10.45;81.03;95354.56;1716159;84;21102;-68
2022/10/03 06:10:50;;;;;;;1.27;1.17;;;;;;;10.45;80.27;95363.80;1715707;84;21070;-68
2022/10/03 06:14:11;;;;;;;2.47;1.15;;;;;;;10.46;80.74;95373.00;1685920;84;21047;-68
2022/10/03 06:17:27;;;;;;;1.77;0.98;;;;;;;10.56;80.89;95369.27;1723428;83;21082;-73
2022/10/03 06:20:29;;;;;;;1.15;0.90;;;;;;;10.67;80.31;95376.07;1724109;83;20999;-69
2022/10/03 06:23:30;;;;;;;3.70;1.20;;;;;;;10.69;78.94;95373.81;1662126;86;21007;-71
2022/10/03 06:26:08;;;;;;;149.00;74.32;;;;;;;10.79;80.31;95372.70;1661796;86;21043;-71
2022/10/03 06:28:43;;;;;;;61.30;39.33;;;;;;;10.92;79.60;95384.30;1705344;83;21077;-71
2022/10/03 06:31:26;;;;;;;101.33;86.82;;;;;;;10.94;78.66;95382.50;1698574;83;21503;-69
2022/10/03 06:34:43;;;;;;;19.90;17.35;;;;;;;11.03;79.55;95386.22;1723318;83;21031;-69
2022/10/03 06:37:41;;;;;;;2.98;2.70;;;;;;;11.08;79.52;95383.47;1723280;83;21035;-68
2022/10/03 06:40:52;;;;;;;4.65;3.47;;;;;;;11.09;78.86;95383.45;1710015;83;21043;-67
2022/10/03 06:43:30;;;;;;;6.20;3.85;;;;;;;11.09;77.92;95388.73;1724332;82;21071;-69
2022/10/03 06:46:26;;;;;;;7.47;4.20;;;;;;;11.16;78.68;95386.79;1723334;82;21074;-68
2022/10/03 06:49:36;;;;;;;4.58;3.60;;;;;;;11.28;79.84;95393.55;1723440;83;21089;-69
2022/10/03 06:52:16;;;;;;;3.27;1.90;;;;;;;11.29;78.50;95396.59;1660420;86;22298;-70
2022/10/03 06:55:17;;;;;;;1.80;1.70;;;;;;;11.24;77.92;95390.14;1709140;83;20992;-72
2022/10/03 06:57:51;;;;;;;1.67;1.57;;;;;;;11.31;77.30;95393.48;1699171;83;21027;-66
2022/10/03 07:01:12;;;;;;;3.47;1.62;;;;;;;11.35;77.35;95399.11;1722416;83;21118;-68
2022/10/03 07:04:07;;;;;;;3.50;1.30;;;;;;;11.38;76.93;95403.84;1723352;83;21078;-69
2022/10/03 07:07:07;;;;;;;5.05;1.45;;;;;;;11.33;73.73;95399.59;1723748;83;21121;-69
2022/10/03 07:10:01;;;;;;;2.37;1.30;;;;;;;11.34;74.38;95408.81;1710454;83;21168;-69
2022/10/03 07:13:05;;;;;;;1.95;1.40;;;;;;;11.28;73.23;95404.13;1723962;83;21110;-75
2022/10/03 07:16:16;;;;;;;3.22;1.50;;;;;;;11.29;73.26;95408.06;1723226;83;21072;-68
2022/10/03 07:19:05;;;;;;;18.35;10.10;;;;;;;11.30;73.65;95414.20;1661694;85;21015;-66
2022/10/03 07:22:03;;;;;;;7.53;6.35;;;;;;;11.25;74.40;95411.66;1661807;86;21044;-65
2022/10/03 07:25:23;;;;;;;9.60;8.68;;;;;;;11.25;73.30;95402.42;1707917;83;21663;-68
2022/10/03 07:28:04;;;;;;;7.97;6.60;;;;;;;11.21;73.27;95417.48;1661441;86;21569;-68
2022/10/03 07:31:29;;;;;;;6.72;1.40;;;;;;;11.20;73.37;95421.02;1724201;83;21011;-73
2022/10/03 07:34:40;;;;;;;2.70;1.77;;;;;;;11.30;74.73;95430.05;1723272;83;21023;-65
2022/10/03 07:41:05;;;;;;;4.03;2.37;;;;;;;11.33;74.18;95422.91;1723883;83;21109;-71
2022/10/03 07:44:09;;;;;;;2.20;1.60;;;;;;;11.45;75.00;95417.33;1721328;83;21595;-67
2022/10/03 07:46:50;;;;;;;2.20;1.40;;;;;;;11.61;75.18;95419.13;1724189;82;21059;-66
2022/10/03 07:49:27;;;;;;;5.47;2.47;;;;;;;11.66;74.70;95425.16;1721524;83;21050;-68
2022/10/03 07:52:27;;;;;;;2.47;1.67;;;;;;;11.66;73.46;95422.97;1724017;82;21488;-68
2022/10/03 07:55:18;;;;;;;2.45;1.80;;;;;;;11.61;73.42;95424.41;1723398;83;21607;-68
2022/10/03 07:58:41;;;;;;;6.87;2.80;;;;;;;11.61;72.65;95420.91;1723072;83;21090;-71
2022/10/03 08:01:55;;;;;;;1.85;1.27;;;;;;;11.63;72.76;95422.59;1723750;83;21027;-66
2022/10/03 08:04:55;;;;;;;44.40;37.95;;;;;;;11.73;73.09;95425.02;1723667;83;21027;-66
2022/10/03 08:07:50;;;;;;;15.15;13.55;;;;;;;11.79;71.75;95424.84;1724023;83;21038;-74
2022/10/03 08:10:45;;;;;;;3.72;1.40;;;;;;;11.83;71.59;95427.83;1724183;83;21027;-69
2022/10/03 08:13:37;;;;;;;2.22;1.12;;;;;;;11.97;71.00;95424.84;1723743;83;21034;-66
2022/10/03 08:16:27;;;;;;;7.80;4.90;;;;;;;12.08;70.16;95422.33;1695972;83;21066;-67
2022/10/03 08:19:26;;;;;;;2.40;1.80;;;;;;;11.94;69.10;95417.00;1723630;83;21089;-66
2022/10/03 08:22:29;;;;;;;3.75;2.20;;;;;;;11.87;68.46;95416.31;1722485;83;21063;-66
2022/10/03 08:25:07;;;;;;;4.87;3.00;;;;;;;11.75;68.78;95413.50;1724129;83;20979;-66
2022/10/03 08:28:22;;;;;;;7.28;5.25;;;;;;;11.95;70.69;95411.69;1673621;83;22186;-68
2022/10/03 08:31:12;;;;;;;114.15;79.70;;;;;;;12.11;70.12;95412.98;1723622;83;22144;-77
2022/10/03 08:34:10;;;;;;;69.15;53.05;;;;;;;12.24;68.56;95406.89;1723686;83;21512;-71
2022/10/03 08:36:47;;;;;;;4.62;1.98;;;;;;;12.30;68.65;95417.33;1724258;83;21030;-76
2022/10/03 08:39:58;;;;;;;1.80;1.15;;;;;;;12.13;66.00;95409.85;1722740;83;21022;-72
2022/10/03 08:43:09;;;;;;;2.17;1.20;;;;;;;12.23;66.36;95413.11;1722986;83;21113;-67
2022/10/03 08:46:16;;;;;;;2.47;1.17;;;;;;;12.42;66.19;95409.47;1723555;82;21011;-68
2022/10/03 08:49:21;;;;;;;1.90;1.37;;;;;;;12.66;65.29;95414.98;1722414;83;21101;-73
2022/10/03 08:51:58;;;;;;;4.17;1.60;;;;;;;12.67;66.17;95408.77;1723866;83;21063;-66
2022/10/03 08:55:10;;;;;;;3.10;1.20;;;;;;;12.78;64.86;95411.98;1722669;83;21050;-68
2022/10/03 08:57:59;;;;;;;2.15;1.27;;;;;;;13.03;66.38;95408.55;1723755;83;21448;-66
2022/10/03 09:00:51;;;;;;;2.35;1.40;;;;;;;13.20;66.54;95414.19;1724074;82;21082;-68
2022/10/03 09:04:04;;;;;;;2.12;1.00;;;;;;;13.35;66.55;95406.25;1723944;82;21065;-66
2022/10/03 09:07:09;;;;;;;2.62;0.93;;;;;;;13.45;65.18;95410.33;1723903;83;21167;-67
2022/10/03 09:10:06;;;;;;;1.80;0.90;;;;;;;13.33;61.79;95410.29;1723038;83;21545;-66
2022/10/03 09:13:15;;;;;;;2.35;1.00;;;;;;;13.41;63.31;95410.90;1724099;83;21580;-67
2022/10/03 09:16:19;;;;;;;2.62;1.12;;;;;;;13.42;61.44;95410.44;1724023;83;21110;-67
2022/10/03 09:19:24;;;;;;;2.42;0.80;;;;;;;13.41;61.62;95400.77;1724531;83;21090;-67
2022/10/03 09:22:26;;;;;;;2.90;1.00;;;;;;;13.74;60.57;95400.56;1724928;82;21543;-67
2022/10/03 09:25:18;;;;;;;1.87;1.10;;;;;;;13.91;60.26;95400.84;1701127;83;21027;-67
2022/10/03 09:28:10;;;;;;;2.47;1.02;;;;;;;13.87;62.15;95398.34;1723907;83;21007;-66
2022/10/03 09:30:45;;;;;;;1.10;1.00;;;;;;;13.70;58.62;95397.59;1724136;83;21022;-67
2022/10/03 09:33:50;;;;;;;2.30;1.10;;;;;;;13.61;58.66;95395.66;1723779;83;21031;-67
2022/10/03 09:36:40;;;;;;;3.22;1.30;;;;;;;13.71;60.39;95401.96;1713867;83;21599;-67
2022/10/03 09:39:27;;;;;;;1.12;1.00;;;;;;;13.78;59.89;95392.88;1724057;83;20983;-67
2022/10/03 09:42:18;;;;;;;1.47;0.90;;;;;;;14.00;59.71;95389.03;1721873;83;21035;-67
2022/10/03 09:45:12;;;;;;;2.35;1.00;;;;;;;14.31;59.58;95390.12;1723989;83;21007;-67
2022/10/03 09:48:21;;;;;;;2.33;1.15;;;;;;;14.52;60.09;95389.81;1724413;83;21054;-67
2022/10/03 09:51:20;;;;;;;2.05;0.80;;;;;;;14.77;57.76;95378.30;1724116;83;21086;-67
2022/10/03 09:54:33;;;;;;;1.07;0.60;;;;;;;15.09;52.92;95369.05;1723555;82;21062;-66
2022/10/03 09:57:39;;;;;;;1.37;0.80;;;;;;;15.09;52.92;95369.05;1723222;83;21188;-66
2022/10/03 10:00:20;;;;;;;2.00;0.88;;;;;;;15.32;57.04;95368.12;1723704;83;21063;-67
2022/10/03 10:03:19;;;;;;;2.00;1.10;;;;;;;15.34;51.60;95375.57;1723898;83;20999;-66
2022/10/03 10:06:17;;;;;;;1.77;0.68;;;;;;;15.56;55.55;95372.43;1724379;83;20990;-67
2022/10/03 10:09:17;;;;;;;0.85;0.60;;;;;;;15.54;52.58;95369.44;1724252;83;21058;-67
2022/10/03 10:12:13;;;;;;;1.47;0.60;;;;;;;15.51;52.75;95359.79;1724597;83;20987;-67
2022/10/03 10:15:06;;;;;;;2.60;0.65;;;;;;;15.50;49.08;95355.89;1723492;83;21130;-67
2022/10/03 10:18:08;;;;;;;3.22;0.60;;;;;;;15.63;51.74;95353.11;1718315;83;21047;-67
2022/10/03 10:21:14;;;;;;;1.12;0.50;;;;;;;15.84;50.56;95362.45;1716470;83;21067;-67
2022/10/03 10:24:05;;;;;;;1.12;0.50;;;;;;;15.40;49.19;95362.05;1716463;84;21015;-67
2022/10/03 10:26:43;;;;;;;0.80;0.65;;;;;;;15.29;50.22;95360.27;1673565;84;21055;-67
2022/10/03 10:29:53;;;;;;;1.07;0.60;;;;;;;14.90;51.36;95365.80;1716244;84;20971;-67
2022/10/03 10:32:59;;;;;;;3.17;0.57;;;;;;;14.91;52.77;95357.36;1716247;83;21075;-67
2022/10/03 10:35:53;;;;;;;0.60;0.53;;;;;;;15.04;52.53;95341.80;1715835;84;20999;-67
2022/10/03 10:38:37;;;;;;;1.52;0.50;;;;;;;14.81;52.30;95348.88;1716188;83;21118;-67
2022/10/03 10:41:29;;;;;;;3.87;0.80;;;;;;;14.64;55.49;95351.32;1716580;84;21494;-67
2022/10/03 10:44:33;;;;;;;2.42;0.62;;;;;;;14.33;54.67;95362.20;1716065;84;21043;-67
2022/10/03 10:47:32;;;;;;;;;;;;;;;13.95;55.85;95367.97;1718913;83;21060;-67
2022/10/03 10:50:43;;;;;;;4.78;3.10;;;;;;;13.15;59.87;95369.33;1716447;83;20093;-67
2022/10/03 10:53:52;;;;;;;19.37;7.65;;;;;;;12.96;60.53;95373.00;1716385;84;21011;-67
2022/10/03 10:56:51;;;;;;;26.37;10.13;;;;;;;12.67;62.70;95376.54;1716471;83;21023;-67
2022/10/03 10:59:35;;;;;;;12.35;5.95;;;;;;;12.49;64.01;95375.77;1645053;87;21065;-67
2022/10/03 11:02:43;;;;;;;9.80;3.85;;;;;;;12.34;64.37;95381.05;1633435;87;21013;-67
2022/10/03 11:05:21;;;;;;;4.97;1.57;;;;;;;12.38;65.35;95364.19;1698654;84;21019;-67
2022/10/03 11:08:24;;;;;;;3.17;2.05;;;;;;;12.42;65.87;95357.88;1716343;84;21032;-67
2022/10/03 11:11:31;;;;;;;3.75;1.42;;;;;;;12.45;65.84;95351.66;1716547;83;21047;-67
2022/10/03 11:14:29;;;;;;;2.20;0.82;;;;;;;12.40;66.72;95355.76;1714147;84;21054;-67
2022/10/03 11:17:30;;;;;;;2.05;1.05;;;;;;;12.45;66.30;95351.66;1716423;83;21032;-66
2022/10/03 11:20:38;;;;;;;3.33;1.80;;;;;;;12.60;68.33;95341.04;1716001;84;21063;-67
2022/10/03 11:23:56;;;;;;;1.72;1.00;;;;;;;13.16;70.79;95333.10;1716355;83;21512;-67
2022/10/03 11:27:06;;;;;;;1.72;1.17;;;;;;;14.45;68.49;95317.95;1716324;83;21020;-67
2022/10/03 11:30:01;;;;;;;4.92;1.85;;;;;;;14.95;66.89;95323.12;1715957;84;21549;-67
2022/10/03 11:33:12;;;;;;;1.50;1.40;;;;;;;15.07;64.28;95317.78;1715989;84;21564;-67
2022/10/03 11:35:53;;;;;;;6.33;3.92;;;;;;;14.89;65.43;95321.58;1652340;87;21141;-67
2022/10/03 11:38:34;;;;;;;4.78;1.85;;;;;;;14.80;63.97;95310.45;1709739;84;21171;-67
2022/10/03 11:41:15;;;;;;;1.95;1.40;;;;;;;14.71;61.27;95315.17;1715450;84;21067;-67
2022/10/03 11:44:03;;;;;;;2.67;0.95;;;;;;;14.56;60.39;95323.73;1716087;84;21011;-67
2022/10/03 11:47:03;;;;;;;0.98;0.70;;;;;;;14.53;61.21;95323.86;1716478;83;21004;-66
2022/10/03 11:50:07;;;;;;;1.22;0.70;;;;;;;14.80;59.61;95316.62;1716074;83;21031;-66
2022/10/03 11:53:09;;;;;;;1.90;0.70;;;;;;;15.58;55.16;95309.89;1715224;84;21127;-67
2022/10/03 11:56:17;;;;;;;1.82;0.80;;;;;;;15.49;55.70;95304.95;1716210;83;21469;-67
2022/10/03 11:59:22;;;;;;;2.35;0.62;;;;;;;15.41;57.61;95309.73;1667006;84;21537;-66
2022/10/03 12:02:21;;;;;;;1.20;0.70;;;;;;;16.10;54.75;95316.07;1715579;84;21011;-68
2022/10/03 12:05:03;;;;;;;0.80;0.68;;;;;;;16.84;51.62;95286.95;1652707;86;21059;-68
2022/10/03 12:10:46;;;;;;;1.35;0.90;;;;;;;18.06;47.83;95280.38;1716637;84;21454;-69
2022/10/03 12:13:18;;;;;;;2.22;0.60;;;;;;;18.66;47.55;95281.16;1716186;84;21106;-69
2022/10/03 12:15:53;;;;;;;1.12;0.90;;;;;;;19.21;46.05;95278.93;1716081;84;21525;-69
2022/10/03 12:18:43;;;;;;;1.85;0.78;;;;;;;19.48;45.35;95274.28;1716464;83;21027;-69
2022/10/03 12:21:25;;;;;;;0.80;0.60;;;;;;;19.51;43.80;95275.91;1710448;84;21075;-69
2022/10/03 12:24:23;;;;;;;3.55;0.72;;;;;;;19.59;43.83;95268.28;1715924;83;21059;-69
2022/10/03 12:26:59;;;;;;;1.30;0.88;;;;;;;19.92;42.69;95259.22;1716119;83;21134;-68
2022/10/03 12:29:31;;;;;;;2.25;0.80;;;;;;;20.42;41.62;95275.33;1715582;84;21028;-69
2022/10/03 12:32:33;;;;;;;3.87;0.98;;;;;;;20.41;42.09;95262.88;1716499;83;21528;-69
2022/10/03 12:35:45;;;;;;;1.10;1.00;;;;;;;20.57;42.47;95273.55;1716146;84;21513;-68
2022/10/03 12:38:49;;;;;;;1.35;0.60;;;;;;;20.66;41.84;95285.00;1716270;84;21035;-68
2022/10/03 12:41:44;;;;;;;1.17;0.75;;;;;;;20.34;40.65;95284.33;1679696;85;21059;-68
2022/10/03 12:44:29;;;;;;;3.12;0.90;;;;;;;20.09;43.02;95284.02;1710538;84;21662;-68
2022/10/03 12:47:32;;;;;;;1.87;0.90;;;;;;;20.25;42.57;95289.77;1716285;84;21553;-68
2022/10/03 12:50:35;;;;;;;1.67;0.80;;;;;;;19.66;43.25;95296.41;1716417;83;20968;-68
2022/10/03 12:53:26;;;;;;;1.90;1.72;;;;;;;18.80;44.37;95302.20;1716650;84;21031;-68
2022/10/03 12:56:17;;;;;;;1.15;0.98;;;;;;;17.89;48.14;95311.51;1716407;83;21497;-70
2022/10/03 12:59:01;;;;;;;2.40;1.00;;;;;;;17.48;48.69;95317.09;1716185;84;21054;-69
2022/10/03 13:01:48;;;;;;;2.37;1.40;;;;;;;16.67;50.58;95321.00;1716486;84;21050;-69
2022/10/03 13:04:32;;;;;;;3.47;1.65;;;;;;;16.28;54.71;95327.25;1715953;84;21103;-69
2022/10/03 13:07:25;;;;;;;4.35;1.15;;;;;;;16.01;58.05;95330.19;1716325;83;20995;-68
2022/10/03 13:10:10;;;;;;;;;;;;;;;15.53;57.05;95342.45;1718662;84;21047;-68
2022/10/03 13:13:19;;;;;;;0.80;0.80;;;;;;;15.12;61.50;95356.52;1716349;83;20089;-68
2022/10/03 13:16:19;;;;;;;0.60;0.60;;;;;;;14.36;59.16;95354.13;1716282;83;21035;-68
2022/10/03 13:18:54;;;;;;;2.05;1.00;;;;;;;13.67;60.60;95349.52;1716276;83;21098;-68
2022/10/03 13:21:48;;;;;;;1.15;0.93;;;;;;;13.25;63.89;95354.44;1716759;84;21087;-67
2022/10/03 13:25:03;;;;;;;3.50;1.80;;;;;;;12.79;66.81;95344.86;1716187;84;21138;-68
2022/10/03 13:27:56;;;;;;;9.03;3.02;;;;;;;12.79;66.81;95344.86;1716279;84;21079;-68
2022/10/03 13:30:40;;;;;;;3.40;1.60;;;;;;;12.59;70.44;95338.00;1716317;83;21023;-67
2022/10/03 13:33:21;;;;;;;2.20;1.20;;;;;;;12.59;70.44;95338.00;1715243;84;21119;-67
2022/10/03 13:36:02;;;;;;;2.60;1.50;;;;;;;12.61;71.32;95336.17;1716148;84;21533;-67
2022/10/03 13:38:51;;;;;;;3.08;1.10;;;;;;;12.56;71.77;95348.22;1716161;84;21055;-67
2022/10/03 13:41:43;;;;;;;2.95;1.50;;;;;;;12.51;71.42;95352.78;1636748;85;21038;-67
2022/10/03 13:44:14;;;;;;;1.50;1.10;;;;;;;12.50;70.35;95354.57;1700824;84;21107;-67
2022/10/03 13:46:55;;;;;;;4.08;1.60;;;;;;;12.54;72.96;95357.52;1716397;83;21050;-67
2022/10/03 13:49:46;;;;;;;2.95;1.75;;;;;;;12.45;71.76;95368.86;1716423;84;21067;-68
2022/10/03 13:52:36;;;;;;;1.62;1.10;;;;;;;12.34;72.10;95385.88;1667174;84;21047;-67